sensor_id;sensor_type;location;lat;lon;timestamp;P1;durP1;ratioP1;P2;durP2;ratioP2
59960;SDS011;55902;-37.980;-63.602;2023-06-22T00:01:46;8.30;;;6.18;;
59960;SDS011;55902;-37.980;-63.602;2023-06-22T00:04:13;8.60;;;6.30;;
59960;SDS011;55902;-37.980;-63.602;2023-06-22T00:06:40;9.52;;;6.53;;
59960;SDS011;55902;-37.980;-63.602;2023-06-22T00:15:51;10.13;;;6.57;;
59960;SDS011;55902;-37.980;-63.602;2023-06-22T00:25:38;9.88;;;6.38;;
59960;SDS011;55902;-37.980;-63.602;2023-06-22T00:28:06;12.10;;;7.40;;
59960;SDS011;55902;-37.980;-63.602;2023-06-22T00:30:34;11.27;;;7.70;;
59960;SDS011;55902;-37.980;-63.602;2023-06-22T00:33:01;12.27;;;7.30;;
59960;SDS011;55902;-37.980;-63.602;2023-06-22T00:35:29;12.98;;;7.45;;
59960;SDS011;55902;-37.980;-63.602;2023-06-22T00:37:59;12.25;;;7.50;;
59960;SDS011;55902;-37.980;-63.602;2023-06-22T00:40:31;12.30;;;7.20;;
59960;SDS011;55902;-37.980;-63.602;2023-06-22T00:43:00;14.48;;;8.35;;
59960;SDS011;55902;-37.980;-63.602;2023-06-22T00:45:27;13.88;;;8.25;;
59960;SDS011;55902;-37.980;-63.602;2023-06-22T00:47:57;11.63;;;8.07;;
59960;SDS011;55902;-37.980;-63.602;2023-06-22T00:50:26;12.90;;;7.85;;
59960;SDS011;55902;-37.980;-63.602;2023-06-22T00:52:59;12.15;;;7.75;;
59960;SDS011;55902;-37.980;-63.602;2023-06-22T00:55:35;12.90;;;8.20;;
59960;SDS011;55902;-37.980;-63.602;2023-06-22T00:58:04;14.50;;;8.45;;
59960;SDS011;55902;-37.980;-63.602;2023-06-22T01:00:36;14.07;;;8.32;;
59960;SDS011;55902;-37.980;-63.602;2023-06-22T01:03:05;14.07;;;8.38;;
59960;SDS011;55902;-37.980;-63.602;2023-06-22T01:05:36;16.67;;;8.75;;
59960;SDS011;55902;-37.980;-63.602;2023-06-22T01:10:48;14.77;;;8.90;;
59960;SDS011;55902;-37.980;-63.602;2023-06-22T01:13:26;15.23;;;9.00;;
59960;SDS011;55902;-37.980;-63.602;2023-06-22T01:18:25;15.18;;;8.88;;
59960;SDS011;55902;-37.980;-63.602;2023-06-22T01:20:57;13.35;;;8.82;;
59960;SDS011;55902;-37.980;-63.602;2023-06-22T01:23:39;16.75;;;8.93;;
59960;SDS011;55902;-37.980;-63.602;2023-06-22T01:29:20;14.38;;;8.73;;
59960;SDS011;55902;-37.980;-63.602;2023-06-22T01:31:48;17.33;;;9.65;;
59960;SDS011;55902;-37.980;-63.602;2023-06-22T01:34:17;15.20;;;9.38;;
59960;SDS011;55902;-37.980;-63.602;2023-06-22T01:36:45;14.40;;;8.70;;
59960;SDS011;55902;-37.980;-63.602;2023-06-22T01:39:13;15.57;;;8.68;;
59960;SDS011;55902;-37.980;-63.602;2023-06-22T01:41:42;14.32;;;8.68;;
59960;SDS011;55902;-37.980;-63.602;2023-06-22T01:44:09;14.48;;;8.52;;
59960;SDS011;55902;-37.980;-63.602;2023-06-22T01:46:38;15.50;;;8.45;;
59960;SDS011;55902;-37.980;-63.602;2023-06-22T01:49:06;14.57;;;8.63;;
59960;SDS011;55902;-37.980;-63.602;2023-06-22T01:51:34;15.15;;;9.05;;
59960;SDS011;55902;-37.980;-63.602;2023-06-22T01:54:01;14.15;;;9.07;;
59960;SDS011;55902;-37.980;-63.602;2023-06-22T01:56:28;13.48;;;9.00;;
59960;SDS011;55902;-37.980;-63.602;2023-06-22T01:59:12;15.80;;;9.85;;
59960;SDS011;55902;-37.980;-63.602;2023-06-22T02:02:06;14.52;;;9.05;;
59960;SDS011;55902;-37.980;-63.602;2023-06-22T02:10:57;15.27;;;8.48;;
59960;SDS011;55902;-37.980;-63.602;2023-06-22T02:13:26;14.07;;;9.20;;
59960;SDS011;55902;-37.980;-63.602;2023-06-22T02:15:55;13.80;;;8.43;;
59960;SDS011;55902;-37.980;-63.602;2023-06-22T02:18:22;13.18;;;8.65;;
59960;SDS011;55902;-37.980;-63.602;2023-06-22T02:20:50;12.20;;;8.30;;
59960;SDS011;55902;-37.980;-63.602;2023-06-22T02:23:19;15.65;;;9.52;;
59960;SDS011;55902;-37.980;-63.602;2023-06-22T02:29:03;13.18;;;8.50;;
59960;SDS011;55902;-37.980;-63.602;2023-06-22T02:31:30;12.30;;;8.35;;
59960;SDS011;55902;-37.980;-63.602;2023-06-22T02:33:58;13.98;;;8.57;;
59960;SDS011;55902;-37.980;-63.602;2023-06-22T02:36:28;14.10;;;8.70;;
59960;SDS011;55902;-37.980;-63.602;2023-06-22T02:38:56;14.55;;;8.45;;
59960;SDS011;55902;-37.980;-63.602;2023-06-22T02:41:26;15.27;;;9.00;;
59960;SDS011;55902;-37.980;-63.602;2023-06-22T02:43:54;12.23;;;8.10;;
59960;SDS011;55902;-37.980;-63.602;2023-06-22T02:46:22;14.10;;;9.07;;
59960;SDS011;55902;-37.980;-63.602;2023-06-22T02:48:49;12.25;;;8.73;;
59960;SDS011;55902;-37.980;-63.602;2023-06-22T02:51:16;13.63;;;8.48;;
59960;SDS011;55902;-37.980;-63.602;2023-06-22T02:53:43;14.73;;;8.93;;
59960;SDS011;55902;-37.980;-63.602;2023-06-22T02:56:10;14.88;;;8.55;;
59960;SDS011;55902;-37.980;-63.602;2023-06-22T03:01:59;16.02;;;8.63;;
59960;SDS011;55902;-37.980;-63.602;2023-06-22T03:04:28;13.85;;;8.25;;
59960;SDS011;55902;-37.980;-63.602;2023-06-22T03:06:56;13.35;;;8.43;;
59960;SDS011;55902;-37.980;-63.602;2023-06-22T03:09:29;14.00;;;8.63;;
59960;SDS011;55902;-37.980;-63.602;2023-06-22T03:11:56;14.25;;;8.25;;
59960;SDS011;55902;-37.980;-63.602;2023-06-22T03:14:23;12.35;;;8.23;;
59960;SDS011;55902;-37.980;-63.602;2023-06-22T03:16:50;14.85;;;9.25;;
59960;SDS011;55902;-37.980;-63.602;2023-06-22T03:19:20;14.57;;;8.40;;
59960;SDS011;55902;-37.980;-63.602;2023-06-22T03:21:47;15.90;;;8.82;;
59960;SDS011;55902;-37.980;-63.602;2023-06-22T03:24:14;13.43;;;8.68;;
59960;SDS011;55902;-37.980;-63.602;2023-06-22T03:26:42;15.10;;;8.65;;
59960;SDS011;55902;-37.980;-63.602;2023-06-22T03:29:12;13.48;;;9.10;;
59960;SDS011;55902;-37.980;-63.602;2023-06-22T03:31:39;13.88;;;8.63;;
59960;SDS011;55902;-37.980;-63.602;2023-06-22T03:34:06;14.80;;;9.05;;
59960;SDS011;55902;-37.980;-63.602;2023-06-22T03:36:33;14.35;;;8.70;;
59960;SDS011;55902;-37.980;-63.602;2023-06-22T03:39:00;12.60;;;8.65;;
59960;SDS011;55902;-37.980;-63.602;2023-06-22T03:41:27;13.77;;;8.60;;
59960;SDS011;55902;-37.980;-63.602;2023-06-22T03:43:54;14.63;;;9.00;;
59960;SDS011;55902;-37.980;-63.602;2023-06-22T03:46:21;13.52;;;8.48;;
59960;SDS011;55902;-37.980;-63.602;2023-06-22T03:48:48;14.13;;;8.50;;
59960;SDS011;55902;-37.980;-63.602;2023-06-22T03:51:15;14.35;;;8.90;;
59960;SDS011;55902;-37.980;-63.602;2023-06-22T03:53:42;14.68;;;8.35;;
59960;SDS011;55902;-37.980;-63.602;2023-06-22T03:56:09;15.38;;;7.97;;
59960;SDS011;55902;-37.980;-63.602;2023-06-22T04:08:42;12.60;;;8.55;;
59960;SDS011;55902;-37.980;-63.602;2023-06-22T04:11:16;15.50;;;8.80;;
59960;SDS011;55902;-37.980;-63.602;2023-06-22T04:13:44;12.60;;;8.25;;
59960;SDS011;55902;-37.980;-63.602;2023-06-22T04:16:11;14.38;;;8.65;;
59960;SDS011;55902;-37.980;-63.602;2023-06-22T04:18:38;13.05;;;8.63;;
59960;SDS011;55902;-37.980;-63.602;2023-06-22T04:21:05;13.82;;;8.85;;
59960;SDS011;55902;-37.980;-63.602;2023-06-22T04:23:32;12.77;;;8.48;;
59960;SDS011;55902;-37.980;-63.602;2023-06-22T04:25:59;15.77;;;8.90;;
59960;SDS011;55902;-37.980;-63.602;2023-06-22T04:28:26;13.02;;;8.63;;
59960;SDS011;55902;-37.980;-63.602;2023-06-22T04:30:53;13.85;;;8.60;;
59960;SDS011;55902;-37.980;-63.602;2023-06-22T04:33:23;12.52;;;8.57;;
59960;SDS011;55902;-37.980;-63.602;2023-06-22T04:35:50;13.45;;;8.35;;
59960;SDS011;55902;-37.980;-63.602;2023-06-22T04:38:17;13.02;;;8.48;;
59960;SDS011;55902;-37.980;-63.602;2023-06-22T04:40:47;15.07;;;8.55;;
59960;SDS011;55902;-37.980;-63.602;2023-06-22T04:43:14;12.35;;;8.55;;
59960;SDS011;55902;-37.980;-63.602;2023-06-22T04:45:41;12.30;;;8.02;;
59960;SDS011;55902;-37.980;-63.602;2023-06-22T04:48:08;12.52;;;8.50;;
59960;SDS011;55902;-37.980;-63.602;2023-06-22T04:53:57;13.55;;;8.55;;
59960;SDS011;55902;-37.980;-63.602;2023-06-22T04:56:26;13.30;;;8.27;;
59960;SDS011;55902;-37.980;-63.602;2023-06-22T04:58:54;12.05;;;8.13;;
59960;SDS011;55902;-37.980;-63.602;2023-06-22T05:01:23;12.75;;;8.57;;
59960;SDS011;55902;-37.980;-63.602;2023-06-22T05:03:51;11.88;;;8.20;;
59960;SDS011;55902;-37.980;-63.602;2023-06-22T05:06:23;12.43;;;8.13;;
59960;SDS011;55902;-37.980;-63.602;2023-06-22T05:08:52;13.25;;;8.30;;
59960;SDS011;55902;-37.980;-63.602;2023-06-22T05:11:23;13.88;;;8.32;;
59960;SDS011;55902;-37.980;-63.602;2023-06-22T05:13:54;13.35;;;8.50;;
59960;SDS011;55902;-37.980;-63.602;2023-06-22T05:16:21;12.48;;;8.52;;
59960;SDS011;55902;-37.980;-63.602;2023-06-22T05:18:53;12.90;;;8.40;;
59960;SDS011;55902;-37.980;-63.602;2023-06-22T05:21:25;12.68;;;8.25;;
59960;SDS011;55902;-37.980;-63.602;2023-06-22T05:23:53;12.15;;;8.50;;
59960;SDS011;55902;-37.980;-63.602;2023-06-22T05:26:21;13.32;;;8.35;;
59960;SDS011;55902;-37.980;-63.602;2023-06-22T05:28:48;14.13;;;8.50;;
59960;SDS011;55902;-37.980;-63.602;2023-06-22T05:31:15;11.65;;;8.18;;
59960;SDS011;55902;-37.980;-63.602;2023-06-22T05:33:45;12.32;;;8.35;;
59960;SDS011;55902;-37.980;-63.602;2023-06-22T05:36:13;13.65;;;8.40;;
59960;SDS011;55902;-37.980;-63.602;2023-06-22T05:38:41;12.43;;;8.07;;
59960;SDS011;55902;-37.980;-63.602;2023-06-22T05:41:08;11.73;;;8.13;;
59960;SDS011;55902;-37.980;-63.602;2023-06-22T05:43:35;13.88;;;8.70;;
59960;SDS011;55902;-37.980;-63.602;2023-06-22T05:46:03;13.95;;;8.07;;
59960;SDS011;55902;-37.980;-63.602;2023-06-22T05:48:30;12.10;;;8.30;;
59960;SDS011;55902;-37.980;-63.602;2023-06-22T05:50:57;11.55;;;8.02;;
59960;SDS011;55902;-37.980;-63.602;2023-06-22T05:53:25;13.25;;;8.57;;
59960;SDS011;55902;-37.980;-63.602;2023-06-22T05:55:52;11.82;;;7.90;;
59960;SDS011;55902;-37.980;-63.602;2023-06-22T05:58:19;18.75;;;8.70;;
59960;SDS011;55902;-37.980;-63.602;2023-06-22T06:00:46;11.65;;;8.27;;
59960;SDS011;55902;-37.980;-63.602;2023-06-22T06:03:13;13.73;;;8.93;;
59960;SDS011;55902;-37.980;-63.602;2023-06-22T06:05:42;13.90;;;8.93;;
59960;SDS011;55902;-37.980;-63.602;2023-06-22T06:08:11;12.88;;;8.82;;
59960;SDS011;55902;-37.980;-63.602;2023-06-22T06:20:31;12.68;;;8.93;;
59960;SDS011;55902;-37.980;-63.602;2023-06-22T06:22:59;14.70;;;9.27;;
59960;SDS011;55902;-37.980;-63.602;2023-06-22T06:25:27;13.13;;;8.68;;
59960;SDS011;55902;-37.980;-63.602;2023-06-22T06:27:55;13.90;;;9.27;;
59960;SDS011;55902;-37.980;-63.602;2023-06-22T06:30:48;14.98;;;8.95;;
59960;SDS011;55902;-37.980;-63.602;2023-06-22T06:33:17;14.50;;;9.40;;
59960;SDS011;55902;-37.980;-63.602;2023-06-22T06:35:46;14.27;;;9.50;;
59960;SDS011;55902;-37.980;-63.602;2023-06-22T06:38:13;14.82;;;9.18;;
59960;SDS011;55902;-37.980;-63.602;2023-06-22T06:40:40;13.90;;;9.38;;
59960;SDS011;55902;-37.980;-63.602;2023-06-22T06:43:07;14.05;;;9.20;;
59960;SDS011;55902;-37.980;-63.602;2023-06-22T06:45:34;16.20;;;9.90;;
59960;SDS011;55902;-37.980;-63.602;2023-06-22T06:48:01;15.82;;;9.73;;
59960;SDS011;55902;-37.980;-63.602;2023-06-22T06:50:28;14.77;;;9.38;;
59960;SDS011;55902;-37.980;-63.602;2023-06-22T06:52:55;14.10;;;9.48;;
59960;SDS011;55902;-37.980;-63.602;2023-06-22T06:55:24;14.30;;;9.40;;
59960;SDS011;55902;-37.980;-63.602;2023-06-22T06:57:52;13.75;;;9.70;;
59960;SDS011;55902;-37.980;-63.602;2023-06-22T07:00:19;13.15;;;9.50;;
59960;SDS011;55902;-37.980;-63.602;2023-06-22T07:02:46;15.07;;;10.35;;
59960;SDS011;55902;-37.980;-63.602;2023-06-22T07:05:13;13.63;;;9.10;;
59960;SDS011;55902;-37.980;-63.602;2023-06-22T07:07:40;13.13;;;9.50;;
59960;SDS011;55902;-37.980;-63.602;2023-06-22T07:10:08;15.20;;;10.07;;
59960;SDS011;55902;-37.980;-63.602;2023-06-22T07:12:35;14.27;;;9.68;;
59960;SDS011;55902;-37.980;-63.602;2023-06-22T07:15:06;15.10;;;9.77;;
59960;SDS011;55902;-37.980;-63.602;2023-06-22T07:17:34;16.58;;;10.00;;
59960;SDS011;55902;-37.980;-63.602;2023-06-22T07:20:02;16.30;;;10.15;;
59960;SDS011;55902;-37.980;-63.602;2023-06-22T07:25:57;15.13;;;9.38;;
59960;SDS011;55902;-37.980;-63.602;2023-06-22T07:28:27;17.15;;;9.80;;
59960;SDS011;55902;-37.980;-63.602;2023-06-22T07:37:54;17.10;;;9.82;;
59960;SDS011;55902;-37.980;-63.602;2023-06-22T07:40:21;15.32;;;9.65;;
59960;SDS011;55902;-37.980;-63.602;2023-06-22T07:42:48;18.92;;;10.35;;
59960;SDS011;55902;-37.980;-63.602;2023-06-22T07:45:17;15.88;;;9.75;;
59960;SDS011;55902;-37.980;-63.602;2023-06-22T07:47:44;15.88;;;10.15;;
59960;SDS011;55902;-37.980;-63.602;2023-06-22T07:50:11;16.10;;;10.10;;
59960;SDS011;55902;-37.980;-63.602;2023-06-22T07:52:38;16.08;;;10.02;;
59960;SDS011;55902;-37.980;-63.602;2023-06-22T07:55:05;16.10;;;10.07;;
59960;SDS011;55902;-37.980;-63.602;2023-06-22T07:57:32;15.20;;;9.55;;
59960;SDS011;55902;-37.980;-63.602;2023-06-22T08:00:00;17.70;;;10.50;;
59960;SDS011;55902;-37.980;-63.602;2023-06-22T08:02:29;16.10;;;10.05;;
59960;SDS011;55902;-37.980;-63.602;2023-06-22T08:04:56;16.00;;;10.00;;
59960;SDS011;55902;-37.980;-63.602;2023-06-22T08:07:23;16.55;;;10.32;;
59960;SDS011;55902;-37.980;-63.602;2023-06-22T08:09:50;15.75;;;9.90;;
59960;SDS011;55902;-37.980;-63.602;2023-06-22T08:12:17;16.67;;;10.48;;
59960;SDS011;55902;-37.980;-63.602;2023-06-22T08:14:45;16.10;;;10.15;;
59960;SDS011;55902;-37.980;-63.602;2023-06-22T08:17:12;14.95;;;9.80;;
59960;SDS011;55902;-37.980;-63.602;2023-06-22T08:19:39;16.52;;;10.10;;
59960;SDS011;55902;-37.980;-63.602;2023-06-22T08:22:06;17.10;;;10.70;;
59960;SDS011;55902;-37.980;-63.602;2023-06-22T08:24:34;16.90;;;10.35;;
59960;SDS011;55902;-37.980;-63.602;2023-06-22T08:30:23;16.73;;;11.02;;
59960;SDS011;55902;-37.980;-63.602;2023-06-22T08:32:51;16.05;;;10.90;;
59960;SDS011;55902;-37.980;-63.602;2023-06-22T08:35:19;19.08;;;11.10;;
59960;SDS011;55902;-37.980;-63.602;2023-06-22T08:48:57;16.23;;;10.80;;
59960;SDS011;55902;-37.980;-63.602;2023-06-22T08:51:24;18.80;;;10.85;;
59960;SDS011;55902;-37.980;-63.602;2023-06-22T08:53:52;17.27;;;11.05;;
59960;SDS011;55902;-37.980;-63.602;2023-06-22T08:56:19;19.40;;;11.27;;
59960;SDS011;55902;-37.980;-63.602;2023-06-22T08:58:46;17.50;;;11.32;;
59960;SDS011;55902;-37.980;-63.602;2023-06-22T09:01:13;19.30;;;11.93;;
59960;SDS011;55902;-37.980;-63.602;2023-06-22T09:03:41;18.52;;;11.65;;
59960;SDS011;55902;-37.980;-63.602;2023-06-22T09:06:08;16.30;;;10.70;;
59960;SDS011;55902;-37.980;-63.602;2023-06-22T09:08:35;18.45;;;11.27;;
59960;SDS011;55902;-37.980;-63.602;2023-06-22T09:11:02;20.52;;;11.55;;
59960;SDS011;55902;-37.980;-63.602;2023-06-22T09:13:30;18.10;;;11.10;;
59960;SDS011;55902;-37.980;-63.602;2023-06-22T09:15:57;17.80;;;10.82;;
59960;SDS011;55902;-37.980;-63.602;2023-06-22T09:18:25;18.85;;;11.23;;
59960;SDS011;55902;-37.980;-63.602;2023-06-22T09:20:52;18.77;;;11.50;;
59960;SDS011;55902;-37.980;-63.602;2023-06-22T09:23:19;17.17;;;11.27;;
59960;SDS011;55902;-37.980;-63.602;2023-06-22T09:25:46;19.88;;;11.57;;
59960;SDS011;55902;-37.980;-63.602;2023-06-22T09:28:13;18.73;;;11.35;;
59960;SDS011;55902;-37.980;-63.602;2023-06-22T09:30:42;17.80;;;10.70;;
59960;SDS011;55902;-37.980;-63.602;2023-06-22T09:33:12;20.05;;;11.60;;
59960;SDS011;55902;-37.980;-63.602;2023-06-22T09:35:42;17.35;;;11.10;;
59960;SDS011;55902;-37.980;-63.602;2023-06-22T09:38:15;17.83;;;11.25;;
59960;SDS011;55902;-37.980;-63.602;2023-06-22T09:40:42;18.52;;;11.15;;
59960;SDS011;55902;-37.980;-63.602;2023-06-22T09:43:09;18.38;;;11.05;;
59960;SDS011;55902;-37.980;-63.602;2023-06-22T09:45:37;19.33;;;11.57;;
59960;SDS011;55902;-37.980;-63.602;2023-06-22T09:48:04;19.38;;;11.50;;
59960;SDS011;55902;-37.980;-63.602;2023-06-22T09:50:31;17.08;;;10.98;;
59960;SDS011;55902;-37.980;-63.602;2023-06-22T09:52:58;17.38;;;11.02;;
59960;SDS011;55902;-37.980;-63.602;2023-06-22T09:55:25;17.70;;;10.93;;
59960;SDS011;55902;-37.980;-63.602;2023-06-22T09:57:52;18.67;;;11.38;;
59960;SDS011;55902;-37.980;-63.602;2023-06-22T10:00:21;18.23;;;12.02;;
59960;SDS011;55902;-37.980;-63.602;2023-06-22T10:02:48;18.52;;;11.43;;
59960;SDS011;55902;-37.980;-63.602;2023-06-22T10:05:19;20.00;;;12.50;;
59960;SDS011;55902;-37.980;-63.602;2023-06-22T10:07:46;18.35;;;11.45;;
59960;SDS011;55902;-37.980;-63.602;2023-06-22T10:10:13;18.83;;;11.82;;
59960;SDS011;55902;-37.980;-63.602;2023-06-22T10:12:47;18.00;;;11.10;;
59960;SDS011;55902;-37.980;-63.602;2023-06-22T10:15:21;19.27;;;11.63;;
59960;SDS011;55902;-37.980;-63.602;2023-06-22T10:17:48;18.70;;;11.35;;
59960;SDS011;55902;-37.980;-63.602;2023-06-22T10:20:24;17.60;;;11.13;;
59960;SDS011;55902;-37.980;-63.602;2023-06-22T10:22:54;20.02;;;11.80;;
59960;SDS011;55902;-37.980;-63.602;2023-06-22T10:25:22;19.50;;;11.13;;
59960;SDS011;55902;-37.980;-63.602;2023-06-22T10:27:50;19.25;;;11.40;;
59960;SDS011;55902;-37.980;-63.602;2023-06-22T10:30:17;20.73;;;11.93;;
59960;SDS011;55902;-37.980;-63.602;2023-06-22T10:32:44;19.77;;;11.68;;
59960;SDS011;55902;-37.980;-63.602;2023-06-22T10:35:11;21.25;;;12.57;;
59960;SDS011;55902;-37.980;-63.602;2023-06-22T10:37:42;20.00;;;12.80;;
59960;SDS011;55902;-37.980;-63.602;2023-06-22T10:40:10;20.08;;;12.52;;
59960;SDS011;55902;-37.980;-63.602;2023-06-22T10:42:38;18.73;;;11.73;;
59960;SDS011;55902;-37.980;-63.602;2023-06-22T10:45:09;22.48;;;12.40;;
59960;SDS011;55902;-37.980;-63.602;2023-06-22T10:47:37;20.25;;;12.38;;
59960;SDS011;55902;-37.980;-63.602;2023-06-22T10:50:04;21.05;;;13.13;;
59960;SDS011;55902;-37.980;-63.602;2023-06-22T10:52:31;23.45;;;12.93;;
59960;SDS011;55902;-37.980;-63.602;2023-06-22T10:55:02;22.00;;;13.40;;
59960;SDS011;55902;-37.980;-63.602;2023-06-22T10:57:30;25.50;;;13.77;;
59960;SDS011;55902;-37.980;-63.602;2023-06-22T10:59:57;23.38;;;13.15;;
59960;SDS011;55902;-37.980;-63.602;2023-06-22T11:02:24;23.38;;;13.25;;
59960;SDS011;55902;-37.980;-63.602;2023-06-22T11:04:53;24.60;;;14.75;;
59960;SDS011;55902;-37.980;-63.602;2023-06-22T11:07:20;22.60;;;13.70;;
59960;SDS011;55902;-37.980;-63.602;2023-06-22T11:09:47;22.27;;;13.75;;
59960;SDS011;55902;-37.980;-63.602;2023-06-22T11:12:14;22.48;;;13.30;;
59960;SDS011;55902;-37.980;-63.602;2023-06-22T11:14:41;23.48;;;13.85;;
59960;SDS011;55902;-37.980;-63.602;2023-06-22T11:17:09;22.92;;;14.43;;
59960;SDS011;55902;-37.980;-63.602;2023-06-22T11:19:36;25.67;;;14.10;;
59960;SDS011;55902;-37.980;-63.602;2023-06-22T11:22:03;27.25;;;15.10;;
59960;SDS011;55902;-37.980;-63.602;2023-06-22T11:24:30;23.13;;;14.35;;
59960;SDS011;55902;-37.980;-63.602;2023-06-22T11:27:04;25.20;;;14.68;;
59960;SDS011;55902;-37.980;-63.602;2023-06-22T11:29:32;26.13;;;15.05;;
59960;SDS011;55902;-37.980;-63.602;2023-06-22T11:31:59;26.17;;;15.25;;
59960;SDS011;55902;-37.980;-63.602;2023-06-22T11:34:27;23.88;;;15.68;;
59960;SDS011;55902;-37.980;-63.602;2023-06-22T11:36:54;23.15;;;14.90;;
59960;SDS011;55902;-37.980;-63.602;2023-06-22T11:39:21;26.65;;;14.90;;
59960;SDS011;55902;-37.980;-63.602;2023-06-22T11:41:48;23.13;;;14.52;;
59960;SDS011;55902;-37.980;-63.602;2023-06-22T11:44:15;24.83;;;15.57;;
59960;SDS011;55902;-37.980;-63.602;2023-06-22T11:46:42;24.77;;;15.05;;
59960;SDS011;55902;-37.980;-63.602;2023-06-22T11:49:09;22.92;;;14.43;;
59960;SDS011;55902;-37.980;-63.602;2023-06-22T11:51:37;28.90;;;16.15;;
59960;SDS011;55902;-37.980;-63.602;2023-06-22T11:54:04;22.63;;;14.20;;
59960;SDS011;55902;-37.980;-63.602;2023-06-22T11:56:32;23.42;;;15.07;;
59960;SDS011;55902;-37.980;-63.602;2023-06-22T11:58:59;27.30;;;15.80;;
59960;SDS011;55902;-37.980;-63.602;2023-06-22T12:01:33;24.10;;;14.60;;
59960;SDS011;55902;-37.980;-63.602;2023-06-22T12:04:01;26.35;;;16.17;;
59960;SDS011;55902;-37.980;-63.602;2023-06-22T12:06:35;26.20;;;15.02;;
59960;SDS011;55902;-37.980;-63.602;2023-06-22T12:09:07;26.98;;;15.55;;
59960;SDS011;55902;-37.980;-63.602;2023-06-22T12:11:34;26.00;;;14.77;;
59960;SDS011;55902;-37.980;-63.602;2023-06-22T12:14:01;26.33;;;14.80;;
59960;SDS011;55902;-37.980;-63.602;2023-06-22T12:16:28;25.02;;;14.70;;
59960;SDS011;55902;-37.980;-63.602;2023-06-22T12:18:55;24.38;;;14.98;;
59960;SDS011;55902;-37.980;-63.602;2023-06-22T12:21:22;23.17;;;14.07;;
59960;SDS011;55902;-37.980;-63.602;2023-06-22T12:23:49;23.52;;;14.10;;
59960;SDS011;55902;-37.980;-63.602;2023-06-22T12:26:17;24.42;;;14.38;;
59960;SDS011;55902;-37.980;-63.602;2023-06-22T12:28:44;23.35;;;14.07;;
59960;SDS011;55902;-37.980;-63.602;2023-06-22T12:31:11;23.08;;;14.02;;
59960;SDS011;55902;-37.980;-63.602;2023-06-22T12:33:42;23.85;;;14.02;;
59960;SDS011;55902;-37.980;-63.602;2023-06-22T12:36:29;23.25;;;13.55;;
59960;SDS011;55902;-37.980;-63.602;2023-06-22T12:38:56;22.70;;;13.82;;
59960;SDS011;55902;-37.980;-63.602;2023-06-22T12:41:25;20.75;;;12.90;;
59960;SDS011;55902;-37.980;-63.602;2023-06-22T12:43:52;22.73;;;13.90;;
59960;SDS011;55902;-37.980;-63.602;2023-06-22T12:46:20;20.48;;;13.30;;
59960;SDS011;55902;-37.980;-63.602;2023-06-22T12:48:47;21.33;;;13.45;;
59960;SDS011;55902;-37.980;-63.602;2023-06-22T12:51:20;20.92;;;13.13;;
59960;SDS011;55902;-37.980;-63.602;2023-06-22T12:53:48;24.00;;;13.13;;
59960;SDS011;55902;-37.980;-63.602;2023-06-22T12:56:15;22.08;;;13.15;;
59960;SDS011;55902;-37.980;-63.602;2023-06-22T12:58:42;19.77;;;12.32;;
59960;SDS011;55902;-37.980;-63.602;2023-06-22T13:01:09;20.67;;;12.88;;
59960;SDS011;55902;-37.980;-63.602;2023-06-22T13:03:37;20.55;;;12.60;;
59960;SDS011;55902;-37.980;-63.602;2023-06-22T13:06:04;19.40;;;12.68;;
59960;SDS011;55902;-37.980;-63.602;2023-06-22T13:08:31;18.75;;;12.43;;
59960;SDS011;55902;-37.980;-63.602;2023-06-22T13:11:04;18.75;;;12.23;;
59960;SDS011;55902;-37.980;-63.602;2023-06-22T13:13:35;19.33;;;11.70;;
59960;SDS011;55902;-37.980;-63.602;2023-06-22T13:16:09;22.60;;;13.85;;
59960;SDS011;55902;-37.980;-63.602;2023-06-22T13:18:37;19.20;;;13.23;;
59960;SDS011;55902;-37.980;-63.602;2023-06-22T13:21:07;18.08;;;12.23;;
59960;SDS011;55902;-37.980;-63.602;2023-06-22T13:23:34;18.10;;;12.82;;
59960;SDS011;55902;-37.980;-63.602;2023-06-22T13:26:02;18.85;;;13.25;;
59960;SDS011;55902;-37.980;-63.602;2023-06-22T13:28:29;17.42;;;12.23;;
59960;SDS011;55902;-37.980;-63.602;2023-06-22T13:30:56;17.10;;;11.95;;
59960;SDS011;55902;-37.980;-63.602;2023-06-22T13:33:23;18.85;;;12.02;;
59960;SDS011;55902;-37.980;-63.602;2023-06-22T13:35:50;16.23;;;11.93;;
59960;SDS011;55902;-37.980;-63.602;2023-06-22T13:38:17;16.65;;;11.77;;
59960;SDS011;55902;-37.980;-63.602;2023-06-22T13:40:44;16.42;;;11.95;;
59960;SDS011;55902;-37.980;-63.602;2023-06-22T13:43:13;16.52;;;11.90;;
59960;SDS011;55902;-37.980;-63.602;2023-06-22T13:45:41;15.52;;;11.15;;
59960;SDS011;55902;-37.980;-63.602;2023-06-22T13:48:11;20.05;;;13.00;;
59960;SDS011;55902;-37.980;-63.602;2023-06-22T13:50:38;16.80;;;12.00;;
59960;SDS011;55902;-37.980;-63.602;2023-06-22T13:53:08;15.65;;;11.10;;
59960;SDS011;55902;-37.980;-63.602;2023-06-22T13:55:35;17.85;;;11.65;;
59960;SDS011;55902;-37.980;-63.602;2023-06-22T13:58:02;15.55;;;11.10;;
59960;SDS011;55902;-37.980;-63.602;2023-06-22T14:00:29;16.17;;;11.77;;
59960;SDS011;55902;-37.980;-63.602;2023-06-22T14:02:56;14.30;;;10.85;;
59960;SDS011;55902;-37.980;-63.602;2023-06-22T14:05:23;15.77;;;11.70;;
59960;SDS011;55902;-37.980;-63.602;2023-06-22T14:07:50;17.00;;;11.45;;
59960;SDS011;55902;-37.980;-63.602;2023-06-22T14:10:17;14.40;;;11.05;;
59960;SDS011;55902;-37.980;-63.602;2023-06-22T14:12:45;18.02;;;12.30;;
59960;SDS011;55902;-37.980;-63.602;2023-06-22T14:15:15;17.77;;;12.43;;
59960;SDS011;55902;-37.980;-63.602;2023-06-22T14:17:42;16.77;;;11.32;;
59960;SDS011;55902;-37.980;-63.602;2023-06-22T14:20:09;14.35;;;11.00;;
59960;SDS011;55902;-37.980;-63.602;2023-06-22T14:22:36;15.43;;;11.27;;
59960;SDS011;55902;-37.980;-63.602;2023-06-22T14:25:07;14.60;;;10.93;;
59960;SDS011;55902;-37.980;-63.602;2023-06-22T14:27:34;14.40;;;10.50;;
59960;SDS011;55902;-37.980;-63.602;2023-06-22T14:30:02;14.65;;;11.25;;
59960;SDS011;55902;-37.980;-63.602;2023-06-22T14:32:33;13.55;;;10.60;;
59960;SDS011;55902;-37.980;-63.602;2023-06-22T14:35:00;14.13;;;10.95;;
59960;SDS011;55902;-37.980;-63.602;2023-06-22T14:37:27;16.38;;;11.10;;
59960;SDS011;55902;-37.980;-63.602;2023-06-22T14:39:54;13.30;;;10.00;;
59960;SDS011;55902;-37.980;-63.602;2023-06-22T14:42:21;13.85;;;10.40;;
59960;SDS011;55902;-37.980;-63.602;2023-06-22T14:44:49;14.70;;;10.77;;
59960;SDS011;55902;-37.980;-63.602;2023-06-22T14:47:19;14.10;;;10.00;;
59960;SDS011;55902;-37.980;-63.602;2023-06-22T14:49:48;15.77;;;10.82;;
59960;SDS011;55902;-37.980;-63.602;2023-06-22T14:52:15;12.55;;;9.60;;
59960;SDS011;55902;-37.980;-63.602;2023-06-22T14:54:42;13.65;;;10.02;;
59960;SDS011;55902;-37.980;-63.602;2023-06-22T14:57:09;16.38;;;10.48;;
59960;SDS011;55902;-37.980;-63.602;2023-06-22T14:59:36;13.57;;;9.85;;
59960;SDS011;55902;-37.980;-63.602;2023-06-22T15:02:03;12.38;;;9.60;;
59960;SDS011;55902;-37.980;-63.602;2023-06-22T15:04:31;13.25;;;9.90;;
59960;SDS011;55902;-37.980;-63.602;2023-06-22T15:07:00;13.93;;;9.98;;
59960;SDS011;55902;-37.980;-63.602;2023-06-22T15:09:27;14.07;;;9.40;;
59960;SDS011;55902;-37.980;-63.602;2023-06-22T15:11:57;12.85;;;10.30;;
59960;SDS011;55902;-37.980;-63.602;2023-06-22T15:14:27;12.23;;;9.50;;
59960;SDS011;55902;-37.980;-63.602;2023-06-22T15:16:55;12.30;;;9.98;;
59960;SDS011;55902;-37.980;-63.602;2023-06-22T15:19:26;12.23;;;9.45;;
59960;SDS011;55902;-37.980;-63.602;2023-06-22T15:21:53;13.25;;;9.20;;